sensor_id;sensor_type;location;lat;lon;timestamp;pressure;altitude;pressure_sealevel;temperature
71630;BMP280;59479;51.902;8.212;2022-12-07T00:00:39;101003.69;;;6.30
71630;BMP280;59479;51.902;8.212;2022-12-07T00:03:05;101006.09;;;6.27
71630;BMP280;59479;51.902;8.212;2022-12-07T00:05:30;101004.50;;;6.30
71630;BMP280;59479;51.902;8.212;2022-12-07T00:07:55;101002.13;;;6.35
71630;BMP280;59479;51.902;8.212;2022-12-07T00:10:20;101009.47;;;6.28
71630;BMP280;59479;51.902;8.212;2022-12-07T00:12:46;101006.31;;;6.37
71630;BMP280;59479;51.902;8.212;2022-12-07T00:15:11;101004.78;;;6.41
71630;BMP280;59479;51.902;8.212;2022-12-07T00:17:36;100998.25;;;6.47
71630;BMP280;59479;51.902;8.212;2022-12-07T00:20:02;101001.38;;;6.39
71630;BMP280;59479;51.902;8.212;2022-12-07T00:22:27;100994.03;;;6.45
71630;BMP280;59479;51.902;8.212;2022-12-07T00:24:53;100995.84;;;6.52
71630;BMP280;59479;51.902;8.212;2022-12-07T00:27:18;100995.94;;;6.55
71630;BMP280;59479;51.902;8.212;2022-12-07T00:29:43;100992.66;;;6.59
71630;BMP280;59479;51.902;8.212;2022-12-07T00:32:09;100993.19;;;6.44
71630;BMP280;59479;51.902;8.212;2022-12-07T00:34:34;100989.78;;;6.41
71630;BMP280;59479;51.902;8.212;2022-12-07T00:36:59;100992.06;;;6.32
71630;BMP280;59479;51.902;8.212;2022-12-07T00:39:25;100984.75;;;6.39
71630;BMP280;59479;51.902;8.212;2022-12-07T00:41:50;100990.59;;;6.40
71630;BMP280;59479;51.902;8.212;2022-12-07T00:44:15;100987.38;;;6.45
71630;BMP280;59479;51.902;8.212;2022-12-07T00:46:41;100987.41;;;6.47
71630;BMP280;59479;51.902;8.212;2022-12-07T00:49:06;100982.38;;;6.45
71630;BMP280;59479;51.902;8.212;2022-12-07T00:51:31;100983.38;;;6.52
71630;BMP280;59479;51.902;8.212;2022-12-07T00:53:56;100981.50;;;6.43
71630;BMP280;59479;51.902;8.212;2022-12-07T00:56:26;100979.81;;;6.42
71630;BMP280;59479;51.902;8.212;2022-12-07T00:59:00;100970.69;;;6.43
71630;BMP280;59479;51.902;8.212;2022-12-07T01:01:29;100960.97;;;6.55
71630;BMP280;59479;51.902;8.212;2022-12-07T01:03:54;100959.41;;;6.60
71630;BMP280;59479;51.902;8.212;2022-12-07T01:06:21;100970.69;;;6.43
71630;BMP280;59479;51.902;8.212;2022-12-07T01:08:48;100972.56;;;6.53
71630;BMP280;59479;51.902;8.212;2022-12-07T01:11:15;100969.00;;;6.42
71630;BMP280;59479;51.902;8.212;2022-12-07T01:13:41;100975.75;;;6.46
71630;BMP280;59479;51.902;8.212;2022-12-07T01:16:10;100970.84;;;6.50
71630;BMP280;59479;51.902;8.212;2022-12-07T01:18:36;100970.69;;;6.43
71630;BMP280;59479;51.902;8.212;2022-12-07T01:21:04;100975.63;;;6.40
71630;BMP280;59479;51.902;8.212;2022-12-07T01:23:31;100981.00;;;6.58
71630;BMP280;59479;51.902;8.212;2022-12-07T01:26:03;100985.88;;;6.52
71630;BMP280;59479;51.902;8.212;2022-12-07T01:28:29;100983.44;;;6.55
71630;BMP280;59479;51.902;8.212;2022-12-07T01:31:19;100982.59;;;6.56
71630;BMP280;59479;51.902;8.212;2022-12-07T01:33:50;100984.94;;;6.48
71630;BMP280;59479;51.902;8.212;2022-12-07T01:36:19;100983.34;;;6.50
71630;BMP280;59479;51.902;8.212;2022-12-07T01:38:46;100985.41;;;6.68
71630;BMP280;59479;51.902;8.212;2022-12-07T01:41:13;100993.50;;;6.58
71630;BMP280;59479;51.902;8.212;2022-12-07T01:44:18;100998.50;;;6.58
71630;BMP280;59479;51.902;8.212;2022-12-07T01:46:57;100992.66;;;6.59
71630;BMP280;59479;51.902;8.212;2022-12-07T01:49:29;100986.25;;;6.69
71630;BMP280;59479;51.902;8.212;2022-12-07T01:52:03;100988.66;;;6.65
71630;BMP280;59479;51.902;8.212;2022-12-07T01:54:30;100978.66;;;6.65
71630;BMP280;59479;51.902;8.212;2022-12-07T01:56:56;100989.47;;;6.66
71630;BMP280;59479;51.902;8.212;2022-12-07T01:59:23;100989.44;;;6.63
71630;BMP280;59479;51.902;8.212;2022-12-07T02:01:51;100981.22;;;6.68
71630;BMP280;59479;51.902;8.212;2022-12-07T02:04:17;100981.91;;;6.61
71630;BMP280;59479;51.902;8.212;2022-12-07T02:06:43;100988.56;;;6.62
71630;BMP280;59479;51.902;8.212;2022-12-07T02:09:10;100976.97;;;6.63
71630;BMP280;59479;51.902;8.212;2022-12-07T02:11:35;100980.25;;;6.62
71630;BMP280;59479;51.902;8.212;2022-12-07T02:14:00;100980.03;;;6.51
71630;BMP280;59479;51.902;8.212;2022-12-07T02:19:43;100976.19;;;6.67
71630;BMP280;59479;51.902;8.212;2022-12-07T02:22:34;100979.81;;;6.41
71630;BMP280;59479;51.902;8.212;2022-12-07T02:28:06;100979.69;;;6.36
71630;BMP280;59479;51.902;8.212;2022-12-07T02:30:35;100983.75;;;6.31
71630;BMP280;59479;51.902;8.212;2022-12-07T02:33:11;100978.75;;;6.31
71630;BMP280;59479;51.902;8.212;2022-12-07T02:38:40;100968.09;;;6.38
71630;BMP280;59479;51.902;8.212;2022-12-07T02:41:21;100976.38;;;6.37
71630;BMP280;59479;51.902;8.212;2022-12-07T02:43:57;100970.81;;;6.49
71630;BMP280;59479;51.902;8.212;2022-12-07T02:46:27;100979.84;;;6.44
71630;BMP280;59479;51.902;8.212;2022-12-07T02:48:54;100969.53;;;6.29
71630;BMP280;59479;51.902;8.212;2022-12-07T02:51:21;100972.34;;;6.44
71630;BMP280;59479;51.902;8.212;2022-12-07T02:53:47;100963.03;;;6.35
71630;BMP280;59479;51.902;8.212;2022-12-07T03:01:50;100969.81;;;6.41
71630;BMP280;59479;51.902;8.212;2022-12-07T03:07:29;100967.72;;;6.22
71630;BMP280;59479;51.902;8.212;2022-12-07T03:10:03;100964.75;;;6.38
71630;BMP280;59479;51.902;8.212;2022-12-07T03:12:45;100965.56;;;6.37
71630;BMP280;59479;51.902;8.212;2022-12-07T03:15:19;100970.41;;;6.29
71630;BMP280;59479;51.902;8.212;2022-12-07T03:17:48;100971.25;;;6.31
71630;BMP280;59479;51.902;8.212;2022-12-07T03:20:18;100976.28;;;6.33
71630;BMP280;59479;51.902;8.212;2022-12-07T03:22:46;100967.66;;;6.21
71630;BMP280;59479;51.902;8.212;2022-12-07T03:25:13;100958.28;;;6.11
71630;BMP280;59479;51.902;8.212;2022-12-07T03:27:49;100972.66;;;6.21
71630;BMP280;59479;51.902;8.212;2022-12-07T03:30:19;100960.97;;;6.18
71630;BMP280;59479;51.902;8.212;2022-12-07T03:32:53;100961.94;;;6.23
71630;BMP280;59479;51.902;8.212;2022-12-07T03:35:26;100956.22;;;6.28
71630;BMP280;59479;51.902;8.212;2022-12-07T03:37:59;100956.34;;;6.34
71630;BMP280;59479;51.902;8.212;2022-12-07T03:43:03;100957.28;;;6.38
71630;BMP280;59479;51.902;8.212;2022-12-07T03:45:56;100959.34;;;6.20
71630;BMP280;59479;51.902;8.212;2022-12-07T03:48:35;100963.34;;;6.14
71630;BMP280;59479;51.902;8.212;2022-12-07T03:51:22;100962.75;;;6.24
71630;BMP280;59479;51.902;8.212;2022-12-07T03:54:05;100956.66;;;6.11
71630;BMP280;59479;51.902;8.212;2022-12-07T03:56:33;100971.34;;;5.99
71630;BMP280;59479;51.902;8.212;2022-12-07T03:58:59;100954.84;;;6.06
71630;BMP280;59479;51.902;8.212;2022-12-07T04:01:25;100960.84;;;6.14
71630;BMP280;59479;51.902;8.212;2022-12-07T04:03:50;100960.13;;;6.18
71630;BMP280;59479;51.902;8.212;2022-12-07T04:06:16;100953.59;;;6.24
71630;BMP280;59479;51.902;8.212;2022-12-07T04:08:41;100954.28;;;6.17
71630;BMP280;59479;51.902;8.212;2022-12-07T04:11:06;100951.06;;;6.21
71630;BMP280;59479;51.902;8.212;2022-12-07T04:13:31;100953.66;;;6.26
71630;BMP280;59479;51.902;8.212;2022-12-07T04:16:17;100949.34;;;6.19
71630;BMP280;59479;51.902;8.212;2022-12-07T04:18:42;100954.31;;;6.19
71630;BMP280;59479;51.902;8.212;2022-12-07T04:21:07;100954.13;;;6.10
71630;BMP280;59479;51.902;8.212;2022-12-07T04:23:33;100954.84;;;6.04
71630;BMP280;59479;51.902;8.212;2022-12-07T04:25:58;100953.13;;;6.03
71630;BMP280;59479;51.902;8.212;2022-12-07T04:28:23;100953.22;;;6.06
71630;BMP280;59479;51.902;8.212;2022-12-07T04:30:49;100945.81;;;6.09
71630;BMP280;59479;51.902;8.212;2022-12-07T04:33:14;100956.44;;;6.01
71630;BMP280;59479;51.902;8.212;2022-12-07T04:35:42;100957.34;;;6.04
71630;BMP280;59479;51.902;8.212;2022-12-07T04:38:07;100963.13;;;6.03
71630;BMP280;59479;51.902;8.212;2022-12-07T04:40:32;100955.69;;;6.05
71630;BMP280;59479;51.902;8.212;2022-12-07T04:42:58;100964.47;;;5.89
71630;BMP280;59479;51.902;8.212;2022-12-07T04:45:23;100968.41;;;5.82
71630;BMP280;59479;51.902;8.212;2022-12-07T04:47:48;100957.66;;;5.83
71630;BMP280;59479;51.902;8.212;2022-12-07T04:50:14;100971.03;;;5.87
71630;BMP280;59479;51.902;8.212;2022-12-07T04:52:39;100967.53;;;5.80
71630;BMP280;59479;51.902;8.212;2022-12-07T04:55:04;100964.09;;;5.75
71630;BMP280;59479;51.902;8.212;2022-12-07T04:57:30;100969.06;;;5.75
71630;BMP280;59479;51.902;8.212;2022-12-07T04:59:55;100961.47;;;5.72
71630;BMP280;59479;51.902;8.212;2022-12-07T05:02:20;100952.50;;;5.77
71630;BMP280;59479;51.902;8.212;2022-12-07T05:04:46;100958.19;;;5.73
71630;BMP280;59479;51.902;8.212;2022-12-07T05:07:11;100951.50;;;5.72
71630;BMP280;59479;51.902;8.212;2022-12-07T05:09:36;100959.13;;;5.76
71630;BMP280;59479;51.902;8.212;2022-12-07T05:12:01;100950.50;;;5.65
71630;BMP280;59479;51.902;8.212;2022-12-07T05:14:27;100952.31;;;5.71
71630;BMP280;59479;51.902;8.212;2022-12-07T05:16:52;100949.16;;;5.76
71630;BMP280;59479;51.902;8.212;2022-12-07T05:19:19;100952.44;;;5.75
71630;BMP280;59479;51.902;8.212;2022-12-07T05:21:44;100953.38;;;5.79
71630;BMP280;59479;51.902;8.212;2022-12-07T05:24:11;100952.69;;;5.85
71630;BMP280;59479;51.902;8.212;2022-12-07T05:26:37;100960.09;;;5.81
71630;BMP280;59479;51.902;8.212;2022-12-07T05:29:03;100958.31;;;5.77
71630;BMP280;59479;51.902;8.212;2022-12-07T05:31:29;100960.44;;;5.64
71630;BMP280;59479;51.902;8.212;2022-12-07T05:33:54;100960.59;;;5.70
71630;BMP280;59479;51.902;8.212;2022-12-07T05:36:19;100954.66;;;5.65
71630;BMP280;59479;51.902;8.212;2022-12-07T05:38:45;100952.22;;;5.66
71630;BMP280;59479;51.902;8.212;2022-12-07T05:41:13;100949.22;;;5.78
71630;BMP280;59479;51.902;8.212;2022-12-07T05:43:59;100946.59;;;5.73
71630;BMP280;59479;51.902;8.212;2022-12-07T05:46:24;100956.59;;;5.75
71630;BMP280;59479;51.902;8.212;2022-12-07T05:48:49;100949.22;;;5.78
71630;BMP280;59479;51.902;8.212;2022-12-07T05:51:15;100949.22;;;5.78
71630;BMP280;59479;51.902;8.212;2022-12-07T05:53:40;100948.38;;;5.79
71630;BMP280;59479;51.902;8.212;2022-12-07T05:56:05;100947.25;;;5.68
71630;BMP280;59479;51.902;8.212;2022-12-07T05:58:31;100944.03;;;5.72
71630;BMP280;59479;51.902;8.212;2022-12-07T06:01:15;100944.84;;;5.72
71630;BMP280;59479;51.902;8.212;2022-12-07T06:03:40;100948.31;;;5.76
71630;BMP280;59479;51.902;8.212;2022-12-07T06:06:05;100945.56;;;5.67
71630;BMP280;59479;51.902;8.212;2022-12-07T06:08:30;100951.50;;;5.72
71630;BMP280;59479;51.902;8.212;2022-12-07T06:10:56;100953.22;;;5.73
71630;BMP280;59479;51.902;8.212;2022-12-07T06:13:39;100943.38;;;5.79
71630;BMP280;59479;51.902;8.212;2022-12-07T06:16:05;100948.84;;;5.64
71630;BMP280;59479;51.902;8.212;2022-12-07T06:18:31;100943.00;;;5.64
71630;BMP280;59479;51.902;8.212;2022-12-07T06:20:56;100946.34;;;5.66
71630;BMP280;59479;51.902;8.212;2022-12-07T06:23:21;100944.97;;;5.75
71630;BMP280;59479;51.902;8.212;2022-12-07T06:25:47;100945.75;;;5.74
71630;BMP280;59479;51.902;8.212;2022-12-07T06:28:12;100958.69;;;5.60
71630;BMP280;59479;51.902;8.212;2022-12-07T06:30:37;100953.59;;;5.55
71630;BMP280;59479;51.902;8.212;2022-12-07T06:33:03;100945.31;;;5.56
71630;BMP280;59479;51.902;8.212;2022-12-07T06:35:28;100950.38;;;5.61
71630;BMP280;59479;51.902;8.212;2022-12-07T06:37:53;100953.00;;;5.65
71630;BMP280;59479;51.902;8.212;2022-12-07T06:40:18;100958.78;;;5.63
71630;BMP280;59479;51.902;8.212;2022-12-07T06:42:44;100953.00;;;5.65
71630;BMP280;59479;51.902;8.212;2022-12-07T06:45:09;100955.47;;;5.64
71630;BMP280;59479;51.902;8.212;2022-12-07T06:47:35;100958.81;;;5.66
71630;BMP280;59479;51.902;8.212;2022-12-07T06:50:00;100959.72;;;5.68
71630;BMP280;59479;51.902;8.212;2022-12-07T06:52:25;100957.00;;;5.59
71630;BMP280;59479;51.902;8.212;2022-12-07T06:54:51;100948.81;;;5.63
71630;BMP280;59479;51.902;8.212;2022-12-07T06:57:16;100951.88;;;5.53
71630;BMP280;59479;51.902;8.212;2022-12-07T06:59:41;100944.47;;;5.57
71630;BMP280;59479;51.902;8.212;2022-12-07T07:02:08;100951.00;;;5.52
71630;BMP280;59479;51.902;8.212;2022-12-07T07:04:33;100951.03;;;5.54
71630;BMP280;59479;51.902;8.212;2022-12-07T07:06:59;100952.75;;;5.55
71630;BMP280;59479;51.902;8.212;2022-12-07T07:09:24;100958.53;;;5.54
71630;BMP280;59479;51.902;8.212;2022-12-07T07:11:49;100960.34;;;5.61
71630;BMP280;59479;51.902;8.212;2022-12-07T07:14:15;100955.25;;;5.55
71630;BMP280;59479;51.902;8.212;2022-12-07T07:16:44;100963.47;;;5.52
71630;BMP280;59479;51.902;8.212;2022-12-07T07:19:09;100965.09;;;5.50
71630;BMP280;59479;51.902;8.212;2022-12-07T07:21:34;100968.38;;;5.48
71630;BMP280;59479;51.902;8.212;2022-12-07T07:24:01;100964.94;;;5.44
71630;BMP280;59479;51.902;8.212;2022-12-07T07:26:26;100965.84;;;5.46
71630;BMP280;59479;51.902;8.212;2022-12-07T07:28:51;100958.31;;;5.45
71630;BMP280;59479;51.902;8.212;2022-12-07T07:31:17;100962.25;;;5.37
71630;BMP280;59479;51.902;8.212;2022-12-07T07:33:42;100972.13;;;5.33
71630;BMP280;59479;51.902;8.212;2022-12-07T07:36:08;100970.38;;;5.30
71630;BMP280;59479;51.902;8.212;2022-12-07T07:38:33;100970.38;;;5.30
71630;BMP280;59479;51.902;8.212;2022-12-07T07:40:58;100964.75;;;5.37
71630;BMP280;59479;51.902;8.212;2022-12-07T07:43:23;100973.03;;;5.36
71630;BMP280;59479;51.902;8.212;2022-12-07T07:45:49;100980.44;;;5.33
71630;BMP280;59479;51.902;8.212;2022-12-07T07:48:14;100981.81;;;5.24
71630;BMP280;59479;51.902;8.212;2022-12-07T07:50:39;100983.56;;;5.26
71630;BMP280;59479;51.902;8.212;2022-12-07T07:53:05;100986.66;;;5.18
71630;BMP280;59479;51.902;8.212;2022-12-07T07:55:30;100978.31;;;5.17
71630;BMP280;59479;51.902;8.212;2022-12-07T07:57:55;100983.53;;;5.25
71630;BMP280;59479;51.902;8.212;2022-12-07T08:00:21;100982.66;;;5.24
71630;BMP280;59479;51.902;8.212;2022-12-07T08:02:47;100990.78;;;5.17
71630;BMP280;59479;51.902;8.212;2022-12-07T08:05:12;100989.09;;;5.16
71630;BMP280;59479;51.902;8.212;2022-12-07T08:07:38;100999.88;;;5.15
71630;BMP280;59479;51.902;8.212;2022-12-07T08:10:04;100987.31;;;5.12
71630;BMP280;59479;51.902;8.212;2022-12-07T08:12:29;100993.13;;;5.11
71630;BMP280;59479;51.902;8.212;2022-12-07T08:14:55;100988.06;;;5.08
71630;BMP280;59479;51.902;8.212;2022-12-07T08:17:20;100984.81;;;5.12
71630;BMP280;59479;51.902;8.212;2022-12-07T08:19:45;100984.97;;;5.17
71630;BMP280;59479;51.902;8.212;2022-12-07T08:22:11;100979.06;;;5.13
71630;BMP280;59479;51.902;8.212;2022-12-07T08:24:36;100988.06;;;5.08
71630;BMP280;59479;51.902;8.212;2022-12-07T08:27:02;100989.63;;;5.05
71630;BMP280;59479;51.902;8.212;2022-12-07T08:29:28;100980.50;;;5.05
71630;BMP280;59479;51.902;8.212;2022-12-07T08:31:53;100991.00;;;4.96
71630;BMP280;59479;51.902;8.212;2022-12-07T08:34:18;100992.78;;;5.00
71630;BMP280;59479;51.902;8.212;2022-12-07T08:36:44;100995.44;;;5.05
71630;BMP280;59479;51.902;8.212;2022-12-07T08:39:09;100992.25;;;5.09
71630;BMP280;59479;51.902;8.212;2022-12-07T08:41:35;100983.81;;;5.04
71630;BMP280;59479;51.902;8.212;2022-12-07T08:44:00;100988.06;;;5.08
71630;BMP280;59479;51.902;8.212;2022-12-07T08:46:47;100986.25;;;5.03
71630;BMP280;59479;51.902;8.212;2022-12-07T08:49:24;100986.34;;;5.06
71630;BMP280;59479;51.902;8.212;2022-12-07T08:51:51;100984.59;;;5.03
71630;BMP280;59479;51.902;8.212;2022-12-07T08:54:18;100990.53;;;5.08
71630;BMP280;59479;51.902;8.212;2022-12-07T08:56:45;100984.91;;;5.15
71630;BMP280;59479;51.902;8.212;2022-12-07T08:59:13;100988.94;;;5.10
71630;BMP280;59479;51.902;8.212;2022-12-07T09:01:39;100989.63;;;5.05
71630;BMP280;59479;51.902;8.212;2022-12-07T09:04:04;100992.09;;;5.05
71630;BMP280;59479;51.902;8.212;2022-12-07T09:06:30;100984.78;;;5.09
71630;BMP280;59479;51.902;8.212;2022-12-07T09:08:58;100983.94;;;5.10
71630;BMP280;59479;51.902;8.212;2022-12-07T09:11:23;100985.50;;;5.07
71630;BMP280;59479;51.902;8.212;2022-12-07T09:13:49;100980.81;;;5.17
71630;BMP280;59479;51.902;8.212;2022-12-07T09:16:14;100980.03;;;5.18
71630;BMP280;59479;51.902;8.212;2022-12-07T09:18:40;100982.38;;;5.14
71630;BMP280;59479;51.902;8.212;2022-12-07T09:21:05;100988.34;;;5.19
71630;BMP280;59479;51.902;8.212;2022-12-07T09:23:30;100988.34;;;5.19
71630;BMP280;59479;51.902;8.212;2022-12-07T09:26:01;100989.31;;;5.24
71630;BMP280;59479;51.902;8.212;2022-12-07T09:28:26;100986.06;;;5.26
71630;BMP280;59479;51.902;8.212;2022-12-07T09:30:52;100994.31;;;5.25
71630;BMP280;59479;51.902;8.212;2022-12-07T09:33:17;100993.16;;;5.13
71630;BMP280;59479;51.902;8.212;2022-12-07T09:35:50;100992.31;;;5.12
71630;BMP280;59479;51.902;8.212;2022-12-07T09:38:16;100988.47;;;5.23
71630;BMP280;59479;51.902;8.212;2022-12-07T09:40:41;100990.03;;;5.20
71630;BMP280;59479;51.902;8.212;2022-12-07T09:45:38;100993.28;;;5.17
71630;BMP280;59479;51.902;8.212;2022-12-07T09:48:04;100992.47;;;5.18
71630;BMP280;59479;51.902;8.212;2022-12-07T09:50:30;100994.13;;;5.18
71630;BMP280;59479;51.902;8.212;2022-12-07T09:53:09;100989.19;;;5.19
71630;BMP280;59479;51.902;8.212;2022-12-07T09:55:36;100986.94;;;5.28
71630;BMP280;59479;51.902;8.212;2022-12-07T09:58:01;100991.28;;;5.35
71630;BMP280;59479;51.902;8.212;2022-12-07T10:00:27;100990.19;;;5.26
71630;BMP280;59479;51.902;8.212;2022-12-07T10:03:01;100991.44;;;5.41
71630;BMP280;59479;51.902;8.212;2022-12-07T10:05:34;100989.22;;;5.51
71630;BMP280;59479;51.902;8.212;2022-12-07T10:08:01;100987.78;;;5.59
71630;BMP280;59479;51.902;8.212;2022-12-07T10:10:30;100983.50;;;5.55
71630;BMP280;59479;51.902;8.212;2022-12-07T10:13:04;100982.00;;;5.62
71630;BMP280;59479;51.902;8.212;2022-12-07T10:15:58;100985.53;;;5.70
71630;BMP280;59479;51.902;8.212;2022-12-07T10:18:34;100976.31;;;5.67
71630;BMP280;59479;51.902;8.212;2022-12-07T10:23:35;100980.25;;;5.58
71630;BMP280;59479;51.902;8.212;2022-12-07T10:26:50;100974.53;;;5.62
71630;BMP280;59479;51.902;8.212;2022-12-07T10:29:31;100976.19;;;5.61
71630;BMP280;59479;51.902;8.212;2022-12-07T10:34:32;100970.59;;;5.70
71630;BMP280;59479;51.902;8.212;2022-12-07T10:37:16;100968.75;;;5.63
71630;BMP280;59479;51.902;8.212;2022-12-07T10:39:54;100968.81;;;5.66
71630;BMP280;59479;51.902;8.212;2022-12-07T10:44:50;100968.66;;;5.60
71630;BMP280;59479;51.902;8.212;2022-12-07T10:53:50;100951.69;;;5.78
71630;BMP280;59479;51.902;8.212;2022-12-07T11:01:45;100955.28;;;5.88
71630;BMP280;59479;51.902;8.212;2022-12-07T11:04:33;100952.41;;;5.74
71630;BMP280;59479;51.902;8.212;2022-12-07T11:07:22;100949.41;;;5.86
71630;BMP280;59479;51.902;8.212;2022-12-07T11:18:33;100936.59;;;6.07
71630;BMP280;59479;51.902;8.212;2022-12-07T11:23:46;100925.22;;;6.19
71630;BMP280;59479;51.902;8.212;2022-12-07T11:26:37;100932.84;;;6.25
71630;BMP280;59479;51.902;8.212;2022-12-07T11:31:37;100915.22;;;6.19
71630;BMP280;59479;51.902;8.212;2022-12-07T11:36:52;100908.69;;;6.24
71630;BMP280;59479;51.902;8.212;2022-12-07T11:41:47;100898.84;;;6.30
71630;BMP280;59479;51.902;8.212;2022-12-07T11:44:50;100894.03;;;6.39
71630;BMP280;59479;51.902;8.212;2022-12-07T11:47:27;100893.22;;;6.40
71630;BMP280;59479;51.902;8.212;2022-12-07T11:50:14;100893.16;;;6.37
71630;BMP280;59479;51.902;8.212;2022-12-07T11:52:51;100886.56;;;6.40
71630;BMP280;59479;51.902;8.212;2022-12-07T11:55:50;100884.28;;;6.51
71630;BMP280;59479;51.902;8.212;2022-12-07T12:01:37;100882.53;;;6.45
71630;BMP280;59479;51.902;8.212;2022-12-07T12:06:37;100879.75;;;6.32
71630;BMP280;59479;51.902;8.212;2022-12-07T12:09:14;100881.63;;;6.42
71630;BMP280;59479;51.902;8.212;2022-12-07T12:26:02;100874.31;;;6.51
71630;BMP280;59479;51.902;8.212;2022-12-07T12:28:35;100870.22;;;6.54
71630;BMP280;59479;51.902;8.212;2022-12-07T12:31:09;100864.50;;;6.60
71630;BMP280;59479;51.902;8.212;2022-12-07T12:33:37;100867.84;;;6.60
71630;BMP280;59479;51.902;8.212;2022-12-07T12:38:49;100853.78;;;6.65
71630;BMP280;59479;51.902;8.212;2022-12-07T12:51:57;100856.53;;;6.78
71630;BMP280;59479;51.902;8.212;2022-12-07T12:54:25;100848.22;;;6.78
71630;BMP280;59479;51.902;8.212;2022-12-07T12:57:30;100853.06;;;6.70
71630;BMP280;59479;51.902;8.212;2022-12-07T12:59:57;100848.25;;;6.79
71630;BMP280;59479;51.902;8.212;2022-12-07T13:13:03;100832.16;;;6.66
71630;BMP280;59479;51.902;8.212;2022-12-07T13:15:47;100837.28;;;6.71
71630;BMP280;59479;51.902;8.212;2022-12-07T13:23:33;100834.28;;;6.90
71630;BMP280;59479;51.902;8.212;2022-12-07T13:26:14;100834.88;;;6.76
71630;BMP280;59479;51.902;8.212;2022-12-07T13:34:04;100823.97;;;6.72
71630;BMP280;59479;51.902;8.212;2022-12-07T13:36:36;100819.84;;;6.74
71630;BMP280;59479;51.902;8.212;2022-12-07T13:39:17;100821.59;;;6.80
71630;BMP280;59479;51.902;8.212;2022-12-07T13:41:43;100814.91;;;6.77
71630;BMP280;59479;51.902;8.212;2022-12-07T13:44:12;100815.81;;;6.81
71630;BMP280;59479;51.902;8.212;2022-12-07T13:47:04;100815.06;;;6.86
71630;BMP280;59479;51.902;8.212;2022-12-07T13:49:36;100810.94;;;6.88
71630;BMP280;59479;51.902;8.212;2022-12-07T13:52:20;100808.22;;;6.76
71630;BMP280;59479;51.902;8.212;2022-12-07T13:54:56;100805.09;;;6.88
71630;BMP280;59479;51.902;8.212;2022-12-07T13:57:22;100814.22;;;6.86
71630;BMP280;59479;51.902;8.212;2022-12-07T13:59:49;100811.53;;;6.75
71630;BMP280;59479;51.902;8.212;2022-12-07T14:02:27;100800.00;;;6.83
71630;BMP280;59479;51.902;8.212;2022-12-07T14:05:09;100805.66;;;6.73
71630;BMP280;59479;51.902;8.212;2022-12-07T14:07:35;100808.31;;;6.82
71630;BMP280;59479;51.902;8.212;2022-12-07T14:10:04;100807.44;;;6.80
71630;BMP280;59479;51.902;8.212;2022-12-07T14:12:31;100807.25;;;6.70
71630;BMP280;59479;51.902;8.212;2022-12-07T14:14:59;100802.41;;;6.79
71630;BMP280;59479;51.902;8.212;2022-12-07T14:17:27;100804.19;;;6.83
71630;BMP280;59479;51.902;8.212;2022-12-07T14:20:00;100814.00;;;6.75
71630;BMP280;59479;51.902;8.212;2022-12-07T14:22:34;100815.75;;;6.78
71630;BMP280;59479;51.902;8.212;2022-12-07T14:25:17;100801.59;;;6.78
71630;BMP280;59479;51.902;8.212;2022-12-07T14:27:52;100799.00;;;6.74
71630;BMP280;59479;51.902;8.212;2022-12-07T14:30:20;100800.81;;;6.82
71630;BMP280;59479;51.902;8.212;2022-12-07T14:32:51;100796.66;;;6.81
71630;BMP280;59479;51.902;8.212;2022-12-07T14:35:18;100796.59;;;6.78
71630;BMP280;59479;51.902;8.212;2022-12-07T14:37:46;100796.53;;;6.75
71630;BMP280;59479;51.902;8.212;2022-12-07T14:40:17;100783.13;;;6.70
71630;BMP280;59479;51.902;8.212;2022-12-07T14:42:45;100787.44;;;6.77
71630;BMP280;59479;51.902;8.212;2022-12-07T14:45:17;100777.31;;;6.71
71630;BMP280;59479;51.902;8.212;2022-12-07T14:47:43;100780.72;;;6.75
71630;BMP280;59479;51.902;8.212;2022-12-07T14:50:12;100784.06;;;6.77
71630;BMP280;59479;51.902;8.212;2022-12-07T14:52:38;100789.88;;;6.74
71630;BMP280;59479;51.902;8.212;2022-12-07T14:55:04;100789.16;;;6.81
71630;BMP280;59479;51.902;8.212;2022-12-07T14:57:29;100789.94;;;6.77
71630;BMP280;59479;51.902;8.212;2022-12-07T14:59:55;100789.09;;;6.78
71630;BMP280;59479;51.902;8.212;2022-12-07T15:02:20;100788.31;;;6.79
71630;BMP280;59479;51.902;8.212;2022-12-07T15:04:45;100785.78;;;6.78
71630;BMP280;59479;51.902;8.212;2022-12-07T15:07:19;100786.53;;;6.75
71630;BMP280;59479;51.902;8.212;2022-12-07T15:09:45;100788.19;;;6.73
71630;BMP280;59479;51.902;8.212;2022-12-07T15:12:10;100773.31;;;6.79
71630;BMP280;59479;51.902;8.212;2022-12-07T15:14:36;100774.13;;;6.80
71630;BMP280;59479;51.902;8.212;2022-12-07T15:17:01;100784.03;;;6.75
71630;BMP280;59479;51.902;8.212;2022-12-07T15:19:26;100785.78;;;6.78
71630;BMP280;59479;51.902;8.212;2022-12-07T15:21:52;100785.75;;;6.76
71630;BMP280;59479;51.902;8.212;2022-12-07T15:24:18;100781.53;;;6.72
71630;BMP280;59479;51.902;8.212;2022-12-07T15:26:45;100788.13;;;6.70
71630;BMP280;59479;51.902;8.212;2022-12-07T15:29:11;100786.44;;;6.69
71630;BMP280;59479;51.902;8.212;2022-12-07T15:31:37;100783.06;;;6.66
71630;BMP280;59479;51.902;8.212;2022-12-07T15:34:03;100782.19;;;6.66
71630;BMP280;59479;51.902;8.212;2022-12-07T15:36:31;100776.53;;;6.72
71630;BMP280;59479;51.902;8.212;2022-12-07T15:38:57;100771.41;;;6.67
71630;BMP280;59479;51.902;8.212;2022-12-07T15:41:23;100758.22;;;6.73
71630;BMP280;59479;51.902;8.212;2022-12-07T15:43:48;100765.50;;;6.62
71630;BMP280;59479;51.902;8.212;2022-12-07T15:46:33;100765.56;;;6.66
71630;BMP280;59479;51.902;8.212;2022-12-07T15:48:59;100760.63;;;6.70
71630;BMP280;59479;51.902;8.212;2022-12-07T15:51:25;100760.53;;;6.63
71630;BMP280;59479;51.902;8.212;2022-12-07T15:53:50;100763.78;;;6.59
71630;BMP280;59479;51.902;8.212;2022-12-07T15:56:16;100764.63;;;6.60
71630;BMP280;59479;51.902;8.212;2022-12-07T15:58:41;100757.88;;;6.56
71630;BMP280;59479;51.902;8.212;2022-12-07T16:01:14;100753.56;;;6.47
71630;BMP280;59479;51.902;8.212;2022-12-07T16:03:40;100758.44;;;6.40
71630;BMP280;59479;51.902;8.212;2022-12-07T16:06:06;100750.91;;;6.38
71630;BMP280;59479;51.902;8.212;2022-12-07T16:08:31;100751.16;;;6.52
71630;BMP280;59479;51.902;8.212;2022-12-07T16:10:57;100747.06;;;6.55
71630;BMP280;59479;51.902;8.212;2022-12-07T16:13:22;100752.88;;;6.56
71630;BMP280;59479;51.902;8.212;2022-12-07T16:15:47;100749.63;;;6.58